Taza, Morocco
Current Conditions -  °F | °C
As of 6:00 PM on Tuesday 21 Oct 2014 (Local Time) from GMFF Reporting Station
Clear Clear  
Wind Chill: 90°   Ceiling: Unl
Heat Index: 90°   Visibility: 6mi
Dew Point: 28°   Wind: 7mph
Humidity: 11%   Direction: 30°NNE
Pressure: 30.21"   Gusts: NA
Location:  34.22°N, 4.02°W
Report Text: GMFF 211700Z 03006KT CAVOK 32/M02 Q1023 NOSIG
Loading
Personal Weather Stations






























Interactive Weather Map
Tropical Storm Tracking
New forecast layout! Learn more

10-Day Weather Forecast

Advertisements
Track Severe Weather on mobile